createdAt,value
2019-03-30T00:09:28.605Z,9.4
2019-03-30T00:19:34.965Z,9.1
2019-03-30T00:29:38.775Z,9.1
2019-03-30T00:39:42.219Z,9.2
2019-03-30T00:49:49.222Z,9.1
2019-03-30T00:59:53.692Z,9
2019-03-30T01:09:57.114Z,8.8
2019-03-30T01:20:02.957Z,8.6
2019-03-30T01:30:07.298Z,8.5
2019-03-30T01:40:10.723Z,8.4
2019-03-30T01:50:17.455Z,8.3
2019-03-30T02:00:21.715Z,8.1
2019-03-30T02:10:25.128Z,8
2019-03-30T02:20:30.729Z,7.7
2019-03-30T02:30:34.641Z,7.7
2019-03-30T02:40:38.138Z,7.6
2019-03-30T02:50:49.658Z,7.6
2019-03-30T03:00:54.343Z,7.4
2019-03-30T03:10:57.803Z,7.5
2019-03-30T03:21:07.683Z,7.3
2019-03-30T03:31:12.507Z,7.3
2019-03-30T03:41:15.999Z,6.8
2019-03-30T03:51:25.935Z,6.9
2019-03-30T04:01:30.338Z,6.9
2019-03-30T04:11:33.818Z,6.7
2019-03-30T04:21:43.989Z,6.7
2019-03-30T04:31:48.507Z,6.7
2019-03-30T04:41:52.031Z,6.7
2019-03-30T04:51:57.608Z,6.6
2019-03-30T05:02:01.728Z,6.1
2019-03-30T05:12:05.193Z,6.1
2019-03-30T05:22:12.708Z,6.2
2019-03-30T05:32:20.273Z,6.1
2019-03-30T05:42:23.677Z,6.1
2019-03-30T05:52:27.191Z,6.5
2019-03-30T06:02:30.653Z,8.6
2019-03-30T06:12:34.123Z,9.8
2019-03-30T06:22:40.370Z,9.9
2019-03-30T06:32:44.435Z,11.1
2019-03-30T06:42:47.859Z,12
2019-03-30T06:52:57.755Z,23.2
2019-03-30T07:03:02.447Z,30
2019-03-30T07:13:05.880Z,32
2019-03-30T07:23:12.005Z,31
2019-03-30T07:33:16.364Z,31
2019-03-30T07:43:19.802Z,34.1
2019-03-30T07:53:26.495Z,38.3
2019-03-30T08:03:30.593Z,37.8
2019-03-30T08:13:34.058Z,41.3
2019-03-30T08:23:40.434Z,42.2
2019-03-30T08:33:44.369Z,33.4
2019-03-30T08:43:47.849Z,28.4
2019-03-30T08:53:54.639Z,26.3
2019-03-30T09:03:58.642Z,25.5
2019-03-30T09:14:02.116Z,24.7
2019-03-30T09:24:09.772Z,24.5
2019-03-30T09:34:13.955Z,24.1
2019-03-30T09:44:17.365Z,23.4
2019-03-30T09:54:23.781Z,22.8
2019-03-30T10:04:27.769Z,22.2
2019-03-30T10:14:31.214Z,22.1
2019-03-30T10:20:51.170Z,21.9
2019-03-30T10:23:07.802Z,22
2019-03-30T10:33:11.190Z,22
2019-03-30T10:43:14.646Z,21.8
2019-03-30T10:53:18.075Z,21.8
2019-03-30T11:03:21.516Z,21
2019-03-30T11:13:24.963Z,21
2019-03-30T11:23:28.480Z,21
2019-03-30T11:33:31.971Z,20.9
2019-03-30T11:43:35.385Z,20.8
2019-03-30T11:53:38.792Z,20.8
2019-03-30T12:03:42.244Z,20
2019-03-30T12:13:45.683Z,20.6
2019-03-30T12:23:49.114Z,20.4
2019-03-30T12:33:52.543Z,19.7
2019-03-30T12:43:55.985Z,19.8
2019-03-30T12:53:59.413Z,19.7
2019-03-30T13:04:02.832Z,19.7
2019-03-30T13:14:06.278Z,19.5
2019-03-30T13:24:09.732Z,19.6
2019-03-30T13:34:13.167Z,19.3
2019-03-30T13:44:16.653Z,19.3
2019-03-30T13:54:20.149Z,19.3
2019-03-30T14:04:23.617Z,19.2
2019-03-30T14:14:27.053Z,19.4
2019-03-30T14:24:30.510Z,19.3
2019-03-30T14:34:33.945Z,19.1
2019-03-30T14:44:37.413Z,19
2019-03-30T14:54:51.975Z,19
2019-03-30T15:04:56.793Z,18.9
2019-03-30T15:15:03.939Z,18.5
2019-03-30T15:25:07.364Z,18.8
2019-03-30T15:35:11.791Z,18.7
2019-03-30T15:45:15.199Z,18.5
2019-03-30T15:55:18.640Z,18.5
2019-03-30T16:05:22.079Z,18.4
2019-03-30T16:15:25.509Z,18.1
2019-03-30T16:25:28.969Z,18
2019-03-30T16:35:32.405Z,18
2019-03-30T16:45:35.867Z,17.8
2019-03-30T16:55:39.303Z,17.7
2019-03-30T17:05:42.794Z,17.6
2019-03-30T17:15:46.268Z,17.4
2019-03-30T17:25:49.709Z,17.3
2019-03-30T17:35:53.110Z,17.1
2019-03-30T17:45:56.533Z,17
2019-03-30T17:56:01.810Z,16.6
2019-03-30T18:06:05.705Z,16.2
2019-03-30T18:16:09.160Z,15.8
2019-03-30T18:26:12.618Z,15.5
2019-03-30T18:36:16.064Z,15.1
2019-03-30T18:46:19.506Z,14.8
2019-03-30T18:56:22.915Z,14.6
2019-03-30T19:06:26.376Z,14.5
2019-03-30T19:16:29.830Z,14.2
2019-03-30T19:26:33.286Z,14
2019-03-30T19:36:36.817Z,13.8
2019-03-30T19:46:40.271Z,13.5
2019-03-30T19:56:43.690Z,13.3
2019-03-30T20:06:47.159Z,13.2
2019-03-30T20:16:50.661Z,12.9
2019-03-30T20:26:54.127Z,12.8
2019-03-30T20:36:57.560Z,12.7
2019-03-30T20:47:00.975Z,12.4
2019-03-30T20:57:04.415Z,12.2
2019-03-30T21:07:07.905Z,12.1
2019-03-30T21:17:11.329Z,11.8
2019-03-30T21:27:14.781Z,11.8
2019-03-30T21:37:18.233Z,11.7
2019-03-30T21:47:21.680Z,11.5
2019-03-30T21:57:25.129Z,11.3
2019-03-30T22:07:28.538Z,11.1
2019-03-30T22:17:31.961Z,11.1
2019-03-30T22:27:35.408Z,10.8
2019-03-30T22:37:38.864Z,10.7
2019-03-30T22:47:42.331Z,10.5
2019-03-30T22:57:45.791Z,10.3
2019-03-30T23:07:49.260Z,10.2
2019-03-30T23:17:52.699Z,10.1
2019-03-30T23:27:56.150Z,10
2019-03-30T23:37:59.615Z,9.9
2019-03-30T23:48:03.070Z,9.8
2019-03-30T23:58:06.521Z,9.5
